»·PEaware :: N416JK KGYR-KSNA

N416JK :: KGYR-KSNA

FLIGHT INFORMATION

Flight Status: Arrived
Operator: Privately registered:
United States
More flights under this callsign
Pilot: John K. (4202)
Aircraft: Unknown
(EPIC)
More flights by this aircraft type
Origin: KGYR Phoenix Goodyear
United States
Destination: KSNA John Wayne-Orange Co
United States
More flights between these airports :: More routes between these airports
Route: +BXK V16 BLH V64 TRM HDF KAYOH7
File this flight plan on PilotEdge
Remarks:
Altitude:
(Current/Filed)
12,000ft
Speed:
(Current/Filed)
250kts
Departed: 12-Jan-18 08:59 AM
Arrived: 12-Jan-18 10:20 AM
Distance/Time
Traveled:
275nm/1:21
Distance/Time
To Go:
Arrived

Flight Plot

Page will automatically refresh every two minutes.

Flight plan parsing failed; only flown route is shown


Map Options




Map Legend


Flown Route
Filed Route
Departure Airport
Arrival Airport
Navaid (VOR, NDB)
Fix

Horizontal Profiles

Position Reports

Time Latitude Longitude Heading Altitude Ground
Speed
12-Jan-18 08:55 33.432639 -112.363345 308 970ft 0kts
12-Jan-18 08:56 33.432639 -112.363345 308 970ft 0kts
12-Jan-18 08:57 33.432639 -112.363345 308 970ft 0kts
12-Jan-18 08:58 33.432639 -112.363345 308 970ft 0kts
12-Jan-18 08:59 33.430289 -112.366215 221 970ft 31kts
12-Jan-18 09:00 33.423796 -112.372660 218 970ft 30kts
12-Jan-18 09:01 33.417223 -112.379113 220 970ft 31kts
12-Jan-18 09:02 33.414296 -112.382482 304 970ft 0kts
12-Jan-18 09:03 33.414296 -112.382482 304 970ft 0kts
12-Jan-18 09:04 33.415125 -112.382967 41 970ft 0kts
12-Jan-18 09:05 33.442809 -112.355033 41 1398ft 218kts
12-Jan-18 09:06 33.493594 -112.300709 41 2221ft 266kts
12-Jan-18 09:07 33.542074 -112.248533 41 3350ft 184kts
12-Jan-18 09:08 33.571732 -112.229338 315 4730ft 100kts
12-Jan-18 09:09 33.567251 -112.274110 258 6312ft 182kts
12-Jan-18 09:10 33.553909 -112.339747 259 7852ft 217kts
12-Jan-18 09:11 33.539561 -112.409923 259 9329ft 226kts
12-Jan-18 09:12 33.524767 -112.482092 259 10807ft 241kts
12-Jan-18 09:13 33.508480 -112.561057 259 11979ft 267kts
12-Jan-18 09:14 33.489335 -112.653060 259 11998ft 295kts
12-Jan-18 09:15 33.469714 -112.747026 259 11987ft 302kts
12-Jan-18 09:16 33.455343 -112.842435 277 11984ft 298kts
12-Jan-18 09:17 33.462763 -112.939984 277 11982ft 299kts
12-Jan-18 09:18 33.470703 -113.039699 277 11982ft 300kts
12-Jan-18 09:19 33.478554 -113.136453 277 11984ft 301kts
12-Jan-18 09:20 33.486433 -113.234370 277 11983ft 297kts
12-Jan-18 09:21 33.494019 -113.331579 277 11983ft 291kts
12-Jan-18 09:22 33.501306 -113.426147 277 11982ft 285kts
12-Jan-18 09:23 33.508348 -113.518472 277 11983ft 281kts
12-Jan-18 09:24 33.515143 -113.608511 277 11978ft 266kts
12-Jan-18 09:25 33.521552 -113.694191 277 11976ft 253kts
12-Jan-18 09:26 33.527637 -113.776254 277 11964ft 249kts
12-Jan-18 09:27 33.533579 -113.857158 277 11963ft 244kts
12-Jan-18 09:28 33.539352 -113.936449 277 11963ft 241kts
12-Jan-18 09:29 33.544776 -114.016378 277 11963ft 240kts
12-Jan-18 09:30 33.550316 -114.094972 277 11963ft 239kts
12-Jan-18 09:31 33.556141 -114.173246 277 11965ft 240kts
12-Jan-18 09:32 33.561805 -114.252944 277 11965ft 240kts
12-Jan-18 09:33 33.567279 -114.331497 277 11965ft 240kts
12-Jan-18 09:34 33.572674 -114.410198 277 11965ft 240kts
12-Jan-18 09:35 33.577885 -114.488469 277 11964ft 240kts
12-Jan-18 09:36 33.583238 -114.568137 277 11964ft 238kts
12-Jan-18 09:37 33.588452 -114.646063 277 11964ft 237kts
12-Jan-18 09:38 33.593608 -114.723783 277 11964ft 237kts
12-Jan-18 09:39 33.597180 -114.801435 274 11964ft 237kts
12-Jan-18 09:40 33.599257 -114.878034 274 11963ft 237kts
12-Jan-18 09:41 33.601374 -114.956019 274 11963ft 237kts
12-Jan-18 09:42 33.603423 -115.033651 275 11963ft 236kts
12-Jan-18 09:43 33.605498 -115.111679 276 11965ft 232kts
12-Jan-18 09:44 33.607692 -115.187263 276 11967ft 229kts
12-Jan-18 09:45 33.609622 -115.262173 276 11957ft 226kts
12-Jan-18 09:46 33.611431 -115.336150 276 11956ft 225kts
12-Jan-18 09:47 33.613204 -115.411111 276 11970ft 224kts
12-Jan-18 09:48 33.614907 -115.485008 276 11975ft 224kts
12-Jan-18 09:49 33.616537 -115.557673 276 11974ft 224kts
12-Jan-18 09:50 33.618174 -115.632495 276 11974ft 226kts
12-Jan-18 09:51 33.619787 -115.708294 276 11974ft 233kts
12-Jan-18 09:52 33.621216 -115.785529 276 11973ft 235kts
12-Jan-18 09:53 33.622254 -115.845744 276 11973ft 236kts
12-Jan-18 09:54 33.623728 -115.924422 276 11972ft 236kts
12-Jan-18 09:55 33.625179 -116.002242 276 11972ft 236kts
12-Jan-18 09:56 33.626591 -116.080095 276 11954ft 238kts
12-Jan-18 09:57 33.631889 -116.149096 284 11958ft 236kts
12-Jan-18 09:58 33.640552 -116.206879 283 11959ft 236kts
12-Jan-18 09:59 33.651475 -116.282591 283 11962ft 237kts
12-Jan-18 10:00 33.662570 -116.360578 283 11968ft 237kts
12-Jan-18 10:01 33.673420 -116.437340 283 11975ft 236kts
12-Jan-18 10:02 33.684216 -116.514100 283 11982ft 236kts
12-Jan-18 10:03 33.694968 -116.590909 283 11988ft 236kts
12-Jan-18 10:04 33.705817 -116.668782 283 11991ft 236kts
12-Jan-18 10:05 33.716497 -116.745805 283 11991ft 236kts
12-Jan-18 10:06 33.725286 -116.809460 283 11990ft 236kts
12-Jan-18 10:07 33.737767 -116.900296 283 12007ft 236kts
12-Jan-18 10:08 33.745485 -116.956718 283 12003ft 237kts
12-Jan-18 10:09 33.749926 -116.989270 283 12001ft 238kts
12-Jan-18 10:10 33.755191 -117.027951 283 11977ft 239kts
12-Jan-18 10:11 33.764468 -117.096306 283 11875ft 249kts
12-Jan-18 10:12 33.774446 -117.168081 282 11441ft 251kts
12-Jan-18 10:13 33.777443 -117.246845 274 10980ft 252kts
12-Jan-18 10:14 33.778116 -117.332096 274 10219ft 258kts
12-Jan-18 10:15 33.778877 -117.413803 274 9228ft 241kts
12-Jan-18 10:16 33.779573 -117.488881 274 8186ft 228kts
12-Jan-18 10:17 33.781058 -117.557804 289 8092ft 186kts
12-Jan-18 10:18 33.797631 -117.619032 291 7034ft 205kts
12-Jan-18 10:19 33.815425 -117.680933 291 5691ft 191kts
12-Jan-18 10:20 33.828040 -117.736360 250 4175ft 167kts
12-Jan-18 10:21 33.805576 -117.779071 238 3007ft 129kts
12-Jan-18 10:22 33.781979 -117.801300 208 2889ft 145kts
12-Jan-18 10:23 33.741309 -117.829512 211 1471ft 141kts
12-Jan-18 10:24 33.716023 -117.843833 202 686ft 93kts
12-Jan-18 10:25 33.694403 -117.856954 207 384ft 93kts
12-Jan-18 10:26 33.675135 -117.869196 207 60ft 16kts
12-Jan-18 10:27 33.674478 -117.871853 110 60ft 0kts

Navigation Log

Ident Type
Flight plan parsing failed, navigation log unavailable